Bookmark and Share
Track history (hours):
 

Callsign E5U2241 (name unknown)

Last reported at 2012-Sep-25 22:32 UTC. Time now 2014-Apr-24 00:16 UTC.
Position N 26°05' W 080°10'.
Warning: this ship's position is years out of date!

NotesDate/timePositionNaut miles runAvg speedWind from/ knotsBaromVisibWave heightAir tempDewpointWater temp
2012-Sep-25 22:32N 26°05' W 080°10'0 0.0
2012-Sep-25 21:30N 26°05' W 080°10'0 0.0
2012-Sep-25 20:32N 26°05' W 080°10'0 0.0
2012-Sep-25 19:26N 26°05' W 080°10'0 0.0
2012-Sep-25 18:29N 26°05' W 080°10'0 0.0
2012-Sep-25 17:33N 26°05' W 080°10'0 0.0
2012-Sep-25 16:33N 26°05' W 080°10'0 0.0
2012-Sep-25 15:29N 26°05' W 080°10'0 0.0
2012-Sep-25 14:33N 26°05' W 080°10'0 0.0
2012-Sep-25 13:29N 26°05' W 080°10'0 0.0
2012-Sep-25 12:33N 26°05' W 080°10'0 0.0
2012-Sep-25 11:33N 26°05' W 080°10'0 0.0
2012-Sep-25 10:35N 26°05' W 080°10'0 0.0
2012-Sep-25 09:33N 26°05' W 080°10'0 0.0
2012-Sep-25 08:33N 26°05' W 080°10'0 0.0
2012-Sep-25 07:33N 26°05' W 080°10'0 0.0
2012-Sep-25 06:33N 26°05' W 080°10'0 0.0
2012-Sep-25 05:32N 26°05' W 080°10'0 0.0
2012-Sep-25 04:36N 26°05' W 080°10'0 0.0
2012-Sep-25 03:33N 26°05' W 080°10'0 0.0
2012-Sep-25 02:33N 26°05' W 080°10'0 0.0
2012-Sep-25 01:33N 26°05' W 080°10'0 0.0
2012-Sep-25 00:33N 26°05' W 080°10'0 0.0
2012-Sep-24 23:32N 26°05' W 080°10'0 0.0
2012-Sep-24 22:33N 26°05' W 080°10'0 0.0
2012-Sep-24 21:33N 26°05' W 080°10'1 0.9
2012-Sep-24 20:33N 26°06' W 080°10'2 2.4
2012-Sep-24 19:33N 26°07' W 080°07'2 1.8
2012-Sep-24 18:31N 26°06' W 080°05'0 0.0
2012-Sep-24 17:33N 26°06' W 080°05'  
2012-Sep-20 14:32N 38°57' W 072°51'9 9.2
2012-Sep-20 13:33N 39°06' W 072°46'10 9.6
2012-Sep-20 12:33N 39°14' W 072°41'10 9.7
2012-Sep-20 11:32N 39°23' W 072°35'810.0
2012-Sep-20 10:44N 39°30' W 072°30'1210.3
2012-Sep-20 09:33N 39°41' W 072°24'1010.5
2012-Sep-20 08:33N 39°50' W 072°18'1110.5
2012-Sep-20 07:33N 39°60' W 072°11'1010.4
2012-Sep-20 06:33N 40°09' W 072°05'1010.4
2012-Sep-20 05:33N 40°19' W 071°59'1010.2
2012-Sep-20 04:37N 40°27' W 071°54'10 9.8
2012-Sep-20 03:33N 40°36' W 071°48'10 9.7
2012-Sep-20 02:33N 40°45' W 071°42'10 9.5
2012-Sep-20 01:34N 40°54' W 071°36'9 9.5
2012-Sep-20 00:34N 41°02' W 071°31'9 9.5
2012-Sep-19 23:33N 41°11' W 071°25'9 9.3
2012-Sep-19 22:33N 41°20' W 071°25'9 9.2
2012-Sep-19 21:34N 41°29' W 071°21'1 1.3
2012-Sep-19 20:33N 41°29' W 071°20'0 0.0
2012-Sep-19 19:33N 41°29' W 071°20'0 0.0
2012-Sep-19 18:30N 41°29' W 071°20'0 0.0
2012-Sep-19 17:33N 41°29' W 071°20'0 0.0
2012-Sep-19 16:28N 41°29' W 071°20'0 0.0
2012-Sep-19 15:31N 41°29' W 071°20'0 0.0
2012-Sep-19 14:31N 41°29' W 071°20'0 0.0
2012-Sep-19 13:31N 41°29' W 071°20'0 0.0
2012-Sep-19 00:27N 41°29' W 071°20'0 0.0
2012-Sep-18 22:30N 41°29' W 071°20'0 0.0
2012-Sep-18 19:33N 41°29' W 071°20'0 0.0
2012-Sep-18 17:31N 41°29' W 071°20'0 0.0
2012-Sep-18 15:25N 41°29' W 071°20'0 0.0
2012-Sep-18 14:28N 41°29' W 071°20'0 0.0
2012-Sep-18 13:31N 41°29' W 071°20'0 0.0
2012-Sep-18 12:31N 41°29' W 071°20'0 0.0
2012-Sep-18 11:31N 41°29' W 071°20'0 0.0
2012-Sep-18 10:37N 41°29' W 071°20'0 0.0
2012-Sep-18 09:28N 41°29' W 071°20'0 0.0
2012-Sep-18 08:31N 41°29' W 071°20'0 0.0
2012-Sep-18 07:34N 41°29' W 071°20'0 0.0
2012-Sep-18 06:34N 41°29' W 071°20'0 0.0
2012-Sep-18 05:33N 41°29' W 071°20'0 0.0
2012-Sep-18 04:36N 41°29' W 071°20'0 0.0
2012-Sep-18 03:33N 41°29' W 071°20'0 0.0
2012-Sep-18 02:33N 41°29' W 071°20'0 0.0
2012-Sep-18 01:33N 41°29' W 071°20'0 0.0
2012-Sep-18 00:33N 41°29' W 071°20'0 0.0
2012-Sep-17 23:30N 41°29' W 071°20'0 0.0
2012-Sep-17 22:33N 41°29' W 071°20'0 0.0
2012-Sep-17 21:24N 41°29' W 071°20'0 0.0
2012-Sep-17 20:33N 41°29' W 071°20'0 0.0
2012-Sep-17 19:33N 41°29' W 071°20'0 0.0
2012-Sep-17 18:33N 41°29' W 071°20'0 0.0
2012-Sep-17 17:33N 41°29' W 071°20'  

Dump ship's entire track history

sailing weather and tide predictions

Ship Status Report: callsign E5U2241